sensor_id;sensor_type;location;lat;lon;timestamp;pressure;altitude;pressure_sealevel;temperature;humidity
50011;BME280;35899;50.352;19.390;2023-04-02T00:08:52;96673.27;;;7.48;100.00
50011;BME280;35899;50.352;19.390;2023-04-02T00:11:30;96677.35;;;7.47;100.00
50011;BME280;35899;50.352;19.390;2023-04-02T00:14:02;96677.13;;;7.45;100.00
50011;BME280;35899;50.352;19.390;2023-04-02T00:16:30;96681.73;;;7.43;100.00
50011;BME280;35899;50.352;19.390;2023-04-02T00:19:00;96679.58;;;7.42;100.00
50011;BME280;35899;50.352;19.390;2023-04-02T00:21:33;96682.86;;;7.42;100.00
50011;BME280;35899;50.352;19.390;2023-04-02T00:24:18;96685.58;;;7.40;100.00
50011;BME280;35899;50.352;19.390;2023-04-02T00:26:51;96689.45;;;7.39;100.00
50011;BME280;35899;50.352;19.390;2023-04-02T00:29:20;96693.67;;;7.38;100.00
50011;BME280;35899;50.352;19.390;2023-04-02T00:31:50;96690.30;;;7.37;100.00
50011;BME280;35899;50.352;19.390;2023-04-02T00:36:50;96691.29;;;7.37;100.00
50011;BME280;35899;50.352;19.390;2023-04-02T00:39:23;96691.46;;;7.35;100.00
50011;BME280;35899;50.352;19.390;2023-04-02T00:41:52;96692.06;;;7.32;100.00
50011;BME280;35899;50.352;19.390;2023-04-02T00:44:23;96691.00;;;7.28;100.00
50011;BME280;35899;50.352;19.390;2023-04-02T00:46:54;96689.05;;;7.26;100.00
50011;BME280;35899;50.352;19.390;2023-04-02T00:51:58;96689.13;;;7.26;100.00
50011;BME280;35899;50.352;19.390;2023-04-02T00:54:28;96691.15;;;7.23;100.00
50011;BME280;35899;50.352;19.390;2023-04-02T00:56:57;96689.69;;;7.22;100.00
50011;BME280;35899;50.352;19.390;2023-04-02T00:59:33;96690.07;;;7.22;100.00
50011;BME280;35899;50.352;19.390;2023-04-02T01:04:51;96700.42;;;7.19;100.00
50011;BME280;35899;50.352;19.390;2023-04-02T01:07:22;96702.27;;;7.17;100.00
50011;BME280;35899;50.352;19.390;2023-04-02T01:15:17;96715.74;;;7.15;100.00
50011;BME280;35899;50.352;19.390;2023-04-02T01:25:31;96720.80;;;7.12;100.00
50011;BME280;35899;50.352;19.390;2023-04-02T01:28:24;96720.76;;;7.12;100.00
50011;BME280;35899;50.352;19.390;2023-04-02T01:30:54;96717.36;;;7.14;100.00
50011;BME280;35899;50.352;19.390;2023-04-02T01:33:27;96715.47;;;7.14;100.00
50011;BME280;35899;50.352;19.390;2023-04-02T01:41:35;96712.85;;;7.10;100.00
50011;BME280;35899;50.352;19.390;2023-04-02T01:44:07;96716.42;;;7.10;100.00
50011;BME280;35899;50.352;19.390;2023-04-02T01:46:37;96715.70;;;7.11;100.00
50011;BME280;35899;50.352;19.390;2023-04-02T01:49:11;96719.48;;;7.11;100.00
50011;BME280;35899;50.352;19.390;2023-04-02T01:51:45;96723.08;;;7.11;100.00
50011;BME280;35899;50.352;19.390;2023-04-02T01:54:16;96726.55;;;7.10;100.00
50011;BME280;35899;50.352;19.390;2023-04-02T01:56:44;96724.10;;;7.09;100.00
50011;BME280;35899;50.352;19.390;2023-04-02T01:59:13;96726.92;;;7.08;100.00
50011;BME280;35899;50.352;19.390;2023-04-02T02:01:47;96728.74;;;7.07;100.00
50011;BME280;35899;50.352;19.390;2023-04-02T02:04:24;96730.84;;;7.06;100.00
50011;BME280;35899;50.352;19.390;2023-04-02T02:06:52;96731.64;;;7.07;100.00
50011;BME280;35899;50.352;19.390;2023-04-02T02:10:02;96733.73;;;7.07;100.00
50011;BME280;35899;50.352;19.390;2023-04-02T02:12:36;96732.20;;;7.06;100.00
50011;BME280;35899;50.352;19.390;2023-04-02T02:15:11;96735.39;;;7.07;100.00
50011;BME280;35899;50.352;19.390;2023-04-02T02:17:47;96732.64;;;7.05;100.00
50011;BME280;35899;50.352;19.390;2023-04-02T02:20:21;96735.27;;;7.04;100.00
50011;BME280;35899;50.352;19.390;2023-04-02T02:25:31;96730.38;;;7.03;100.00
50011;BME280;35899;50.352;19.390;2023-04-02T02:33:18;96731.60;;;7.02;100.00
50011;BME280;35899;50.352;19.390;2023-04-02T02:35:49;96735.67;;;7.01;100.00
50011;BME280;35899;50.352;19.390;2023-04-02T02:46:39;96749.20;;;7.02;100.00
50011;BME280;35899;50.352;19.390;2023-04-02T02:49:13;96746.13;;;7.01;100.00
50011;BME280;35899;50.352;19.390;2023-04-02T02:51:46;96754.55;;;7.01;100.00
50011;BME280;35899;50.352;19.390;2023-04-02T02:54:19;96753.55;;;7.01;100.00
50011;BME280;35899;50.352;19.390;2023-04-02T02:56:50;96751.55;;;7.00;100.00
50011;BME280;35899;50.352;19.390;2023-04-02T02:59:20;96755.79;;;6.99;100.00
50011;BME280;35899;50.352;19.390;2023-04-02T03:01:49;96757.77;;;6.97;100.00
50011;BME280;35899;50.352;19.390;2023-04-02T03:04:20;96758.72;;;6.96;100.00
50011;BME280;35899;50.352;19.390;2023-04-02T03:06:50;96759.81;;;6.96;100.00
50011;BME280;35899;50.352;19.390;2023-04-02T03:12:03;96765.04;;;6.95;100.00
50011;BME280;35899;50.352;19.390;2023-04-02T03:14:47;96766.64;;;6.94;100.00
50011;BME280;35899;50.352;19.390;2023-04-02T03:17:20;96766.24;;;6.95;100.00
50011;BME280;35899;50.352;19.390;2023-04-02T03:22:32;96766.98;;;6.94;100.00
50011;BME280;35899;50.352;19.390;2023-04-02T03:25:15;96770.43;;;6.94;100.00
50011;BME280;35899;50.352;19.390;2023-04-02T03:27:48;96771.66;;;6.94;100.00
50011;BME280;35899;50.352;19.390;2023-04-02T03:30:36;96772.73;;;6.93;100.00
50011;BME280;35899;50.352;19.390;2023-04-02T03:33:08;96774.97;;;6.93;100.00
50011;BME280;35899;50.352;19.390;2023-04-02T03:35:41;96780.42;;;6.91;100.00
50011;BME280;35899;50.352;19.390;2023-04-02T03:38:33;96780.46;;;6.91;100.00
50011;BME280;35899;50.352;19.390;2023-04-02T03:41:10;96783.33;;;6.92;100.00
50011;BME280;35899;50.352;19.390;2023-04-02T03:43:43;96785.88;;;6.92;100.00
50011;BME280;35899;50.352;19.390;2023-04-02T03:48:48;96787.17;;;6.93;100.00
50011;BME280;35899;50.352;19.390;2023-04-02T03:53:46;96792.45;;;6.94;100.00
50011;BME280;35899;50.352;19.390;2023-04-02T03:56:28;96794.02;;;6.93;100.00
50011;BME280;35899;50.352;19.390;2023-04-02T03:59:45;96796.83;;;6.93;100.00
50011;BME280;35899;50.352;19.390;2023-04-02T04:04:38;96801.69;;;6.92;100.00
50011;BME280;35899;50.352;19.390;2023-04-02T04:07:19;96806.52;;;6.92;100.00
50011;BME280;35899;50.352;19.390;2023-04-02T04:09:49;96810.02;;;6.91;100.00
50011;BME280;35899;50.352;19.390;2023-04-02T04:14:54;96817.02;;;6.89;100.00
50011;BME280;35899;50.352;19.390;2023-04-02T04:17:44;96817.50;;;6.88;100.00
50011;BME280;35899;50.352;19.390;2023-04-02T04:20:16;96825.16;;;6.86;100.00
50011;BME280;35899;50.352;19.390;2023-04-02T04:22:49;96829.52;;;6.85;100.00
50011;BME280;35899;50.352;19.390;2023-04-02T04:25:23;96831.05;;;6.86;100.00
50011;BME280;35899;50.352;19.390;2023-04-02T04:30:43;96835.32;;;6.86;100.00
50011;BME280;35899;50.352;19.390;2023-04-02T04:33:17;96835.00;;;6.86;100.00
50011;BME280;35899;50.352;19.390;2023-04-02T04:35:51;96837.91;;;6.86;100.00
50011;BME280;35899;50.352;19.390;2023-04-02T04:38:29;96841.10;;;6.84;100.00
50011;BME280;35899;50.352;19.390;2023-04-02T04:41:10;96844.90;;;6.84;100.00
50011;BME280;35899;50.352;19.390;2023-04-02T04:43:47;96845.54;;;6.85;100.00
50011;BME280;35899;50.352;19.390;2023-04-02T04:46:20;96846.96;;;6.87;100.00
50011;BME280;35899;50.352;19.390;2023-04-02T04:48:55;96851.10;;;6.89;100.00
50011;BME280;35899;50.352;19.390;2023-04-02T04:51:32;96852.63;;;6.89;100.00
50011;BME280;35899;50.352;19.390;2023-04-02T04:54:02;96852.08;;;6.90;100.00
50011;BME280;35899;50.352;19.390;2023-04-02T04:56:33;96856.30;;;6.91;100.00
50011;BME280;35899;50.352;19.390;2023-04-02T04:59:22;96858.41;;;6.92;100.00
50011;BME280;35899;50.352;19.390;2023-04-02T05:02:04;96862.00;;;6.93;100.00
50011;BME280;35899;50.352;19.390;2023-04-02T05:04:35;96862.95;;;6.92;100.00
50011;BME280;35899;50.352;19.390;2023-04-02T05:09:57;96863.52;;;6.93;100.00
50011;BME280;35899;50.352;19.390;2023-04-02T05:20:20;96871.56;;;6.91;100.00
50011;BME280;35899;50.352;19.390;2023-04-02T05:22:53;96877.04;;;6.87;100.00
50011;BME280;35899;50.352;19.390;2023-04-02T05:25:28;96878.93;;;6.85;100.00
50011;BME280;35899;50.352;19.390;2023-04-02T05:28:04;96885.60;;;6.83;100.00
50011;BME280;35899;50.352;19.390;2023-04-02T05:30:39;96884.43;;;6.82;100.00
50011;BME280;35899;50.352;19.390;2023-04-02T05:35:46;96893.52;;;6.80;100.00
50011;BME280;35899;50.352;19.390;2023-04-02T05:38:19;96894.59;;;6.80;100.00
50011;BME280;35899;50.352;19.390;2023-04-02T05:40:49;96896.44;;;6.78;100.00
50011;BME280;35899;50.352;19.390;2023-04-02T05:43:20;96900.31;;;6.77;100.00
50011;BME280;35899;50.352;19.390;2023-04-02T05:45:54;96903.80;;;6.76;100.00
50011;BME280;35899;50.352;19.390;2023-04-02T05:48:35;96907.95;;;6.76;100.00
50011;BME280;35899;50.352;19.390;2023-04-02T05:51:08;96907.91;;;6.76;100.00
50011;BME280;35899;50.352;19.390;2023-04-02T05:53:45;96910.87;;;6.76;100.00
50011;BME280;35899;50.352;19.390;2023-04-02T05:56:23;96913.23;;;6.74;100.00
50011;BME280;35899;50.352;19.390;2023-04-02T05:58:58;96913.01;;;6.72;100.00
50011;BME280;35899;50.352;19.390;2023-04-02T06:04:12;96920.64;;;6.64;100.00
50011;BME280;35899;50.352;19.390;2023-04-02T06:09:53;96922.63;;;6.55;100.00
50011;BME280;35899;50.352;19.390;2023-04-02T06:12:25;96924.61;;;6.51;100.00
50011;BME280;35899;50.352;19.390;2023-04-02T06:15:07;96929.30;;;6.48;100.00
50011;BME280;35899;50.352;19.390;2023-04-02T06:17:51;96935.42;;;6.43;100.00
50011;BME280;35899;50.352;19.390;2023-04-02T06:20:20;96944.95;;;6.38;100.00
50011;BME280;35899;50.352;19.390;2023-04-02T06:22:58;96945.16;;;6.32;100.00
50011;BME280;35899;50.352;19.390;2023-04-02T06:25:33;96951.91;;;6.26;100.00
50011;BME280;35899;50.352;19.390;2023-04-02T06:28:25;96960.87;;;6.24;100.00
50011;BME280;35899;50.352;19.390;2023-04-02T06:30:55;96966.45;;;6.17;100.00
50011;BME280;35899;50.352;19.390;2023-04-02T06:33:33;96971.86;;;6.09;100.00
50011;BME280;35899;50.352;19.390;2023-04-02T06:36:12;96975.98;;;5.98;100.00
50011;BME280;35899;50.352;19.390;2023-04-02T06:38:40;96983.40;;;5.84;100.00
50011;BME280;35899;50.352;19.390;2023-04-02T06:41:16;96988.62;;;5.73;100.00
50011;BME280;35899;50.352;19.390;2023-04-02T06:44:33;96993.27;;;5.62;100.00
50011;BME280;35899;50.352;19.390;2023-04-02T06:47:09;97003.40;;;5.56;100.00
50011;BME280;35899;50.352;19.390;2023-04-02T06:50:03;97002.69;;;5.48;100.00
50011;BME280;35899;50.352;19.390;2023-04-02T06:52:38;97005.45;;;5.40;100.00
50011;BME280;35899;50.352;19.390;2023-04-02T06:57:50;97021.03;;;5.35;100.00
50011;BME280;35899;50.352;19.390;2023-04-02T07:00:32;97025.44;;;5.31;100.00
50011;BME280;35899;50.352;19.390;2023-04-02T07:03:05;97027.98;;;5.26;100.00
50011;BME280;35899;50.352;19.390;2023-04-02T07:05:34;97033.84;;;5.23;100.00
50011;BME280;35899;50.352;19.390;2023-04-02T07:08:02;97040.19;;;5.17;100.00
50011;BME280;35899;50.352;19.390;2023-04-02T07:10:37;97045.45;;;5.10;100.00
50011;BME280;35899;50.352;19.390;2023-04-02T07:13:05;97050.52;;;5.02;100.00
50011;BME280;35899;50.352;19.390;2023-04-02T07:15:33;97057.52;;;4.92;100.00
50011;BME280;35899;50.352;19.390;2023-04-02T07:18:02;97063.98;;;4.78;100.00
50011;BME280;35899;50.352;19.390;2023-04-02T07:20:33;97066.94;;;4.66;100.00
50011;BME280;35899;50.352;19.390;2023-04-02T07:23:05;97076.66;;;4.59;100.00
50011;BME280;35899;50.352;19.390;2023-04-02T07:25:33;97082.48;;;4.53;100.00
50011;BME280;35899;50.352;19.390;2023-04-02T07:28:04;97088.52;;;4.46;100.00
50011;BME280;35899;50.352;19.390;2023-04-02T07:30:32;97095.46;;;4.42;100.00
50011;BME280;35899;50.352;19.390;2023-04-02T07:33:03;97094.71;;;4.37;100.00
50011;BME280;35899;50.352;19.390;2023-04-02T07:35:31;97101.85;;;4.35;100.00
50011;BME280;35899;50.352;19.390;2023-04-02T07:38:01;97104.42;;;4.29;100.00
50011;BME280;35899;50.352;19.390;2023-04-02T07:40:29;97108.60;;;4.28;100.00
50011;BME280;35899;50.352;19.390;2023-04-02T07:42:57;97115.95;;;4.28;100.00
50011;BME280;35899;50.352;19.390;2023-04-02T07:45:25;97119.80;;;4.26;100.00
50011;BME280;35899;50.352;19.390;2023-04-02T07:47:53;97127.40;;;4.25;100.00
50011;BME280;35899;50.352;19.390;2023-04-02T07:50:21;97130.18;;;4.25;100.00
50011;BME280;35899;50.352;19.390;2023-04-02T07:52:49;97139.05;;;4.25;100.00
50011;BME280;35899;50.352;19.390;2023-04-02T07:55:17;97143.64;;;4.23;100.00
50011;BME280;35899;50.352;19.390;2023-04-02T08:00:16;97152.45;;;4.28;100.00
50011;BME280;35899;50.352;19.390;2023-04-02T08:02:45;97156.52;;;4.28;100.00
50011;BME280;35899;50.352;19.390;2023-04-02T08:05:13;97159.65;;;4.27;100.00
50011;BME280;35899;50.352;19.390;2023-04-02T08:07:41;97162.34;;;4.23;100.00
50011;BME280;35899;50.352;19.390;2023-04-02T08:10:10;97163.25;;;4.19;100.00
50011;BME280;35899;50.352;19.390;2023-04-02T08:12:38;97169.72;;;4.16;100.00
50011;BME280;35899;50.352;19.390;2023-04-02T08:15:06;97175.67;;;4.11;100.00
50011;BME280;35899;50.352;19.390;2023-04-02T08:17:34;97180.56;;;4.00;100.00
50011;BME280;35899;50.352;19.390;2023-04-02T08:20:03;97182.44;;;3.97;100.00
50011;BME280;35899;50.352;19.390;2023-04-02T08:22:32;97185.85;;;4.03;100.00
50011;BME280;35899;50.352;19.390;2023-04-02T08:25:02;97189.34;;;4.14;100.00
50011;BME280;35899;50.352;19.390;2023-04-02T08:27:36;97195.34;;;4.23;100.00
50011;BME280;35899;50.352;19.390;2023-04-02T08:30:04;97198.98;;;4.32;100.00
50011;BME280;35899;50.352;19.390;2023-04-02T08:32:36;97199.04;;;4.43;100.00
50011;BME280;35899;50.352;19.390;2023-04-02T08:35:04;97206.85;;;4.53;100.00
50011;BME280;35899;50.352;19.390;2023-04-02T08:37:32;97209.89;;;4.57;100.00
50011;BME280;35899;50.352;19.390;2023-04-02T08:40:00;97213.27;;;4.61;100.00
50011;BME280;35899;50.352;19.390;2023-04-02T08:42:45;97215.02;;;4.69;100.00
50011;BME280;35899;50.352;19.390;2023-04-02T08:46:04;97221.19;;;4.75;100.00
50011;BME280;35899;50.352;19.390;2023-04-02T08:48:20;97223.73;;;4.66;100.00
50011;BME280;35899;50.352;19.390;2023-04-02T08:50:51;97228.68;;;4.49;100.00
50011;BME280;35899;50.352;19.390;2023-04-02T08:53:23;97234.42;;;4.47;100.00
50011;BME280;35899;50.352;19.390;2023-04-02T08:55:56;97235.89;;;4.40;100.00
50011;BME280;35899;50.352;19.390;2023-04-02T08:58:28;97238.70;;;4.32;100.00
50011;BME280;35899;50.352;19.390;2023-04-02T09:01:00;97237.61;;;4.30;100.00
50011;BME280;35899;50.352;19.390;2023-04-02T09:03:40;97239.09;;;4.31;100.00
50011;BME280;35899;50.352;19.390;2023-04-02T09:06:12;97241.88;;;4.37;100.00
50011;BME280;35899;50.352;19.390;2023-04-02T09:08:43;97241.90;;;4.42;100.00
50011;BME280;35899;50.352;19.390;2023-04-02T09:13:47;97246.69;;;4.55;100.00
50011;BME280;35899;50.352;19.390;2023-04-02T09:16:18;97251.92;;;4.59;100.00
50011;BME280;35899;50.352;19.390;2023-04-02T09:18:46;97259.10;;;4.62;100.00
50011;BME280;35899;50.352;19.390;2023-04-02T09:23:59;97268.16;;;4.75;100.00
50011;BME280;35899;50.352;19.390;2023-04-02T09:26:30;97277.29;;;4.68;100.00
50011;BME280;35899;50.352;19.390;2023-04-02T09:29:24;97279.67;;;4.53;100.00
50011;BME280;35899;50.352;19.390;2023-04-02T09:31:49;97285.21;;;4.43;100.00
50011;BME280;35899;50.352;19.390;2023-04-02T09:34:29;97286.05;;;4.47;100.00
50011;BME280;35899;50.352;19.390;2023-04-02T09:39:46;97294.33;;;4.60;100.00
50011;BME280;35899;50.352;19.390;2023-04-02T09:45:23;97303.71;;;4.46;100.00
50011;BME280;35899;50.352;19.390;2023-04-02T09:47:56;97308.62;;;4.50;100.00
50011;BME280;35899;50.352;19.390;2023-04-02T09:50:26;97312.91;;;4.47;100.00
50011;BME280;35899;50.352;19.390;2023-04-02T09:52:54;97318.02;;;4.41;100.00
50011;BME280;35899;50.352;19.390;2023-04-02T09:55:33;97317.55;;;4.40;100.00
50011;BME280;35899;50.352;19.390;2023-04-02T09:58:27;97313.98;;;4.40;100.00
50011;BME280;35899;50.352;19.390;2023-04-02T10:00:59;97321.96;;;4.38;100.00
50011;BME280;35899;50.352;19.390;2023-04-02T10:03:40;97320.52;;;4.49;100.00
50011;BME280;35899;50.352;19.390;2023-04-02T10:09:02;97323.36;;;4.68;100.00
50011;BME280;35899;50.352;19.390;2023-04-02T10:11:45;97325.61;;;4.65;100.00
50011;BME280;35899;50.352;19.390;2023-04-02T10:17:08;97337.46;;;4.49;100.00
50011;BME280;35899;50.352;19.390;2023-04-02T10:19:39;97341.52;;;4.44;100.00
50011;BME280;35899;50.352;19.390;2023-04-02T10:22:20;97344.46;;;4.40;100.00
50011;BME280;35899;50.352;19.390;2023-04-02T10:24:52;97351.83;;;4.37;100.00
50011;BME280;35899;50.352;19.390;2023-04-02T10:33:11;97358.51;;;4.40;100.00
50011;BME280;35899;50.352;19.390;2023-04-02T10:36:04;97359.59;;;4.46;100.00
50011;BME280;35899;50.352;19.390;2023-04-02T10:41:42;97363.59;;;4.91;100.00
50011;BME280;35899;50.352;19.390;2023-04-02T10:49:33;97375.98;;;4.99;100.00
50011;BME280;35899;50.352;19.390;2023-04-02T10:52:16;97378.28;;;5.28;100.00
50011;BME280;35899;50.352;19.390;2023-04-02T10:54:47;97380.55;;;5.31;100.00
50011;BME280;35899;50.352;19.390;2023-04-02T11:00:04;97393.55;;;5.01;100.00
50011;BME280;35899;50.352;19.390;2023-04-02T11:02:37;97396.00;;;4.82;100.00
50011;BME280;35899;50.352;19.390;2023-04-02T11:05:11;97394.38;;;4.74;100.00
50011;BME280;35899;50.352;19.390;2023-04-02T11:07:47;97403.04;;;4.69;100.00
50011;BME280;35899;50.352;19.390;2023-04-02T11:10:18;97406.20;;;4.67;100.00
50011;BME280;35899;50.352;19.390;2023-04-02T11:12:51;97406.79;;;4.66;100.00
50011;BME280;35899;50.352;19.390;2023-04-02T11:15:21;97408.05;;;4.68;100.00
50011;BME280;35899;50.352;19.390;2023-04-02T11:17:53;97414.84;;;4.66;100.00
50011;BME280;35899;50.352;19.390;2023-04-02T11:23:09;97422.52;;;4.83;100.00
50011;BME280;35899;50.352;19.390;2023-04-02T11:25:38;97422.33;;;5.05;100.00
50011;BME280;35899;50.352;19.390;2023-04-02T11:28:14;97427.23;;;5.09;100.00
50011;BME280;35899;50.352;19.390;2023-04-02T11:30:47;97431.23;;;4.99;100.00
50011;BME280;35899;50.352;19.390;2023-04-02T11:38:53;97436.84;;;4.81;100.00
50011;BME280;35899;50.352;19.390;2023-04-02T11:44:21;97440.27;;;4.71;100.00
50011;BME280;35899;50.352;19.390;2023-04-02T11:46:50;97447.00;;;4.64;100.00
50011;BME280;35899;50.352;19.390;2023-04-02T11:49:34;97449.11;;;4.57;100.00
50011;BME280;35899;50.352;19.390;2023-04-02T11:52:03;97454.27;;;4.60;100.00
50011;BME280;35899;50.352;19.390;2023-04-02T11:54:39;97450.74;;;4.68;100.00
50011;BME280;35899;50.352;19.390;2023-04-02T12:00:18;97457.15;;;4.85;100.00
50011;BME280;35899;50.352;19.390;2023-04-02T12:05:41;97459.08;;;4.85;100.00
50011;BME280;35899;50.352;19.390;2023-04-02T12:10:56;97465.45;;;4.68;100.00
50011;BME280;35899;50.352;19.390;2023-04-02T12:16:12;97468.85;;;4.85;100.00
50011;BME280;35899;50.352;19.390;2023-04-02T12:18:50;97470.94;;;5.03;100.00
50011;BME280;35899;50.352;19.390;2023-04-02T12:21:20;97476.14;;;5.18;100.00
50011;BME280;35899;50.352;19.390;2023-04-02T12:23:50;97476.14;;;5.21;100.00
50011;BME280;35899;50.352;19.390;2023-04-02T12:26:29;97479.88;;;5.15;100.00
50011;BME280;35899;50.352;19.390;2023-04-02T12:29:18;97478.81;;;5.06;100.00
50011;BME280;35899;50.352;19.390;2023-04-02T12:31:48;97480.45;;;4.96;100.00
50011;BME280;35899;50.352;19.390;2023-04-02T12:34:17;97482.80;;;4.83;100.00
50011;BME280;35899;50.352;19.390;2023-04-02T12:36:53;97489.23;;;4.76;100.00
50011;BME280;35899;50.352;19.390;2023-04-02T12:39:21;97491.38;;;4.74;100.00
50011;BME280;35899;50.352;19.390;2023-04-02T12:41:51;97495.89;;;4.82;100.00
50011;BME280;35899;50.352;19.390;2023-04-02T12:44:26;97494.17;;;4.89;100.00
50011;BME280;35899;50.352;19.390;2023-04-02T12:46:57;97498.11;;;4.92;100.00
50011;BME280;35899;50.352;19.390;2023-04-02T12:49:41;97505.25;;;4.84;100.00
50011;BME280;35899;50.352;19.390;2023-04-02T12:52:13;97504.45;;;4.73;100.00
50011;BME280;35899;50.352;19.390;2023-04-02T12:54:46;97500.16;;;4.60;100.00
50011;BME280;35899;50.352;19.390;2023-04-02T12:57:27;97506.73;;;4.49;100.00
50011;BME280;35899;50.352;19.390;2023-04-02T12:59:58;97512.73;;;4.49;100.00
50011;BME280;35899;50.352;19.390;2023-04-02T13:02:27;97518.95;;;4.51;100.00
50011;BME280;35899;50.352;19.390;2023-04-02T13:04:59;97513.87;;;4.54;100.00
50011;BME280;35899;50.352;19.390;2023-04-02T13:07:31;97520.87;;;4.51;100.00
50011;BME280;35899;50.352;19.390;2023-04-02T13:10:00;97526.54;;;4.44;100.00
50011;BME280;35899;50.352;19.390;2023-04-02T13:12:35;97528.82;;;4.36;100.00
50011;BME280;35899;50.352;19.390;2023-04-02T13:15:17;97534.16;;;4.29;100.00
50011;BME280;35899;50.352;19.390;2023-04-02T13:17:47;97533.88;;;4.21;100.00
50011;BME280;35899;50.352;19.390;2023-04-02T13:20:29;97539.81;;;4.15;100.00
50011;BME280;35899;50.352;19.390;2023-04-02T13:22:58;97543.27;;;4.11;100.00
50011;BME280;35899;50.352;19.390;2023-04-02T13:25:31;97545.92;;;4.06;100.00
50011;BME280;35899;50.352;19.390;2023-04-02T13:28:02;97544.43;;;4.05;100.00
50011;BME280;35899;50.352;19.390;2023-04-02T13:30:30;97546.43;;;4.06;100.00
50011;BME280;35899;50.352;19.390;2023-04-02T13:32:57;97550.03;;;4.09;100.00
50011;BME280;35899;50.352;19.390;2023-04-02T13:35:25;97555.13;;;4.14;100.00
50011;BME280;35899;50.352;19.390;2023-04-02T13:37:56;97561.15;;;4.14;100.00
50011;BME280;35899;50.352;19.390;2023-04-02T13:40:27;97562.84;;;4.14;100.00
50011;BME280;35899;50.352;19.390;2023-04-02T13:42:55;97566.39;;;4.08;100.00
50011;BME280;35899;50.352;19.390;2023-04-02T13:45:24;97568.46;;;4.01;100.00
50011;BME280;35899;50.352;19.390;2023-04-02T13:47:56;97571.24;;;3.96;100.00
50011;BME280;35899;50.352;19.390;2023-04-02T13:50:24;97573.83;;;3.92;100.00
50011;BME280;35899;50.352;19.390;2023-04-02T13:52:52;97576.77;;;3.88;100.00
50011;BME280;35899;50.352;19.390;2023-04-02T13:55:21;97578.66;;;3.84;100.00
50011;BME280;35899;50.352;19.390;2023-04-02T13:57:52;97579.52;;;3.81;100.00
50011;BME280;35899;50.352;19.390;2023-04-02T14:00:21;97581.08;;;3.73;100.00
50011;BME280;35899;50.352;19.390;2023-04-02T14:02:54;97582.63;;;3.69;100.00
50011;BME280;35899;50.352;19.390;2023-04-02T14:05:40;97580.73;;;3.70;100.00
50011;BME280;35899;50.352;19.390;2023-04-02T14:16:27;97595.82;;;3.65;100.00
50011;BME280;35899;50.352;19.390;2023-04-02T14:21:59;97605.55;;;3.73;100.00
50011;BME280;35899;50.352;19.390;2023-04-02T14:24:37;97605.37;;;3.84;100.00
50011;BME280;35899;50.352;19.390;2023-04-02T14:27:17;97607.64;;;3.90;100.00
50011;BME280;35899;50.352;19.390;2023-04-02T14:40:34;97619.80;;;3.79;100.00
50011;BME280;35899;50.352;19.390;2023-04-02T14:43:10;97626.14;;;3.76;100.00
50011;BME280;35899;50.352;19.390;2023-04-02T14:50:46;97632.34;;;3.64;100.00
50011;BME280;35899;50.352;19.390;2023-04-02T14:53:24;97634.98;;;3.63;100.00
50011;BME280;35899;50.352;19.390;2023-04-02T14:55:53;97637.13;;;3.64;100.00
50011;BME280;35899;50.352;19.390;2023-04-02T14:58:25;97643.20;;;3.73;100.00
50011;BME280;35899;50.352;19.390;2023-04-02T15:01:02;97644.20;;;3.81;100.00
50011;BME280;35899;50.352;19.390;2023-04-02T15:03:40;97645.62;;;3.80;100.00
50011;BME280;35899;50.352;19.390;2023-04-02T15:06:11;97647.00;;;3.72;100.00
50011;BME280;35899;50.352;19.390;2023-04-02T15:08:46;97644.15;;;3.67;100.00
50011;BME280;35899;50.352;19.390;2023-04-02T15:11:47;97646.77;;;3.59;100.00
50011;BME280;35899;50.352;19.390;2023-04-02T15:17:14;97658.41;;;3.59;100.00
50011;BME280;35899;50.352;19.390;2023-04-02T15:19:42;97656.37;;;3.59;100.00
50011;BME280;35899;50.352;19.390;2023-04-02T15:24:54;97662.56;;;3.62;100.00
50011;BME280;35899;50.352;19.390;2023-04-02T15:27:34;97667.59;;;3.71;100.00
50011;BME280;35899;50.352;19.390;2023-04-02T15:30:09;97668.34;;;3.88;100.00
50011;BME280;35899;50.352;19.390;2023-04-02T15:32:38;97674.39;;;3.98;100.00
50011;BME280;35899;50.352;19.390;2023-04-02T16:12:34;97723.92;;;3.52;99.64
50011;BME280;35899;50.352;19.390;2023-04-02T16:15:10;97724.05;;;3.49;99.78
50011;BME280;35899;50.352;19.390;2023-04-02T16:17:42;97733.94;;;3.46;99.93
50011;BME280;35899;50.352;19.390;2023-04-02T16:22:43;97739.00;;;3.36;99.69
50011;BME280;35899;50.352;19.390;2023-04-02T16:25:28;97739.77;;;3.26;99.82
50011;BME280;35899;50.352;19.390;2023-04-02T16:28:41;97746.52;;;3.16;99.89
50011;BME280;35899;50.352;19.390;2023-04-02T16:30:54;97747.45;;;3.06;100.00
50011;BME280;35899;50.352;19.390;2023-04-02T16:43:45;97764.60;;;3.01;100.00
50011;BME280;35899;50.352;19.390;2023-04-02T16:46:21;97770.12;;;2.95;100.00
50011;BME280;35899;50.352;19.390;2023-04-02T16:49:13;97772.90;;;2.90;100.00
50011;BME280;35899;50.352;19.390;2023-04-02T16:52:05;97774.02;;;2.88;100.00
50011;BME280;35899;50.352;19.390;2023-04-02T16:59:51;97789.33;;;2.73;100.00
50011;BME280;35899;50.352;19.390;2023-04-02T17:04:52;97793.03;;;2.62;100.00
50011;BME280;35899;50.352;19.390;2023-04-02T17:07:27;97792.95;;;2.60;100.00
50011;BME280;35899;50.352;19.390;2023-04-02T17:10:23;97799.25;;;2.56;100.00
50011;BME280;35899;50.352;19.390;2023-04-02T17:12:50;97808.41;;;2.58;100.00
50011;BME280;35899;50.352;19.390;2023-04-02T17:15:21;97810.82;;;2.57;100.00
50011;BME280;35899;50.352;19.390;2023-04-02T17:17:59;97810.15;;;2.57;100.00
50011;BME280;35899;50.352;19.390;2023-04-02T17:20:28;97811.96;;;2.54;100.00
50011;BME280;35899;50.352;19.390;2023-04-02T17:22:56;97814.48;;;2.51;100.00
50011;BME280;35899;50.352;19.390;2023-04-02T17:25:29;97816.05;;;2.50;100.00